Time;durP1;ratioP1;P1;durP2;ratioP2;P2;SDS_P1;SDS_P2;PMS_P1;PMS_P2;Temp;Humidity;BMP_temperature;BMP_pressure;BME280_temperature;BME280_humidity;BME280_pressure;Samples;Min_cycle;Max_cycle;Signal;HPM_P1;HPM_P2
2021/12/26 00:01:15;;;;;;;6.05;4.15;;;-12.10;84.20;-13.30;96916.00;;;;4938424;28;89292;-61
2021/12/26 00:03:42;;;;;;;5.40;4.10;;;-12.10;84.60;-13.30;96912.00;;;;4943259;28;88550;-62
2021/12/26 00:06:13;;;;;;;5.65;4.28;;;-12.10;84.50;-13.30;96904.00;;;;4942821;28;87549;-60
2021/12/26 00:08:42;;;;;;;6.50;4.72;;;-12.10;84.70;-13.30;96900.00;;;;4946888;28;88196;-61
2021/12/26 00:11:10;;;;;;;6.50;4.72;;;-12.10;84.60;-13.30;96898.00;;;;4945867;28;87621;-62
2021/12/26 00:13:37;;;;;;;5.78;3.63;;;-12.10;84.70;-13.30;96894.00;;;;4949843;28;86302;-60
2021/12/26 00:16:05;;;;;;;7.35;5.40;;;-12.10;84.80;-13.30;96877.00;;;;4942524;28;87715;-60
2021/12/26 00:18:31;;;;;;;7.85;5.85;;;-12.10;84.90;-13.30;96880.00;;;;4946347;28;87329;-60
2021/12/26 00:20:58;;;;;;;7.90;5.88;;;-12.00;85.00;-13.20;96901.00;;;;4924628;28;88850;-61
2021/12/26 00:23:24;;;;;;;8.48;6.20;;;-12.00;85.10;-13.20;96900.00;;;;4942972;28;87360;-61
2021/12/26 00:25:51;;;;;;;6.95;5.75;;;-12.00;85.10;-13.10;96893.00;;;;4949554;28;87643;-61
2021/12/26 00:28:18;;;;;;;8.88;6.05;;;-11.90;85.50;-13.00;96897.00;;;;4948918;28;88498;-60
2021/12/26 00:30:45;;;;;;;7.60;5.55;;;-11.80;85.40;-12.80;96898.00;;;;4948726;28;88553;-61
2021/12/26 00:33:12;;;;;;;6.47;5.43;;;-11.70;85.10;-12.60;96883.00;;;;4935980;28;87143;-61
2021/12/26 00:35:39;;;;;;;7.30;3.97;;;-11.50;84.90;-12.40;96896.00;;;;4943778;28;87879;-61
2021/12/26 00:38:05;;;;;;;6.97;5.20;;;-11.30;84.70;-12.30;96899.00;;;;4944650;28;87381;-61
2021/12/26 00:40:32;;;;;;;6.68;5.43;;;-11.20;84.30;-12.20;96895.00;;;;4927235;28;87403;-61
2021/12/26 00:42:59;;;;;;;6.65;4.78;;;-11.10;84.00;-12.10;96903.00;;;;4946037;28;87019;-62
2021/12/26 00:45:25;;;;;;;8.05;4.68;;;-11.00;83.80;-12.00;96897.00;;;;4947532;28;88514;-62
2021/12/26 00:47:52;;;;;;;6.68;4.63;;;-10.90;83.80;-11.90;96901.00;;;;4942222;28;89331;-62
2021/12/26 00:50:27;;;;;;;5.82;4.35;;;-10.80;83.80;-11.80;96889.00;;;;4925495;28;88770;-61
2021/12/26 00:52:54;;;;;;;5.68;4.40;;;-10.70;83.60;-11.70;96885.00;;;;4940724;28;87616;-61
2021/12/26 00:55:20;;;;;;;5.20;4.40;;;-10.70;83.40;-11.60;96884.00;;;;4924293;28;86917;-61
2021/12/26 00:57:47;;;;;;;6.28;4.50;;;-10.60;83.50;-11.60;96879.00;;;;4945958;28;87042;-61
2021/12/26 01:00:29;;;;;;;5.65;4.43;;;-10.50;83.30;-11.50;96871.00;;;;4932881;28;87371;-63
2021/12/26 01:02:59;;;;;;;6.75;4.60;;;-10.50;83.10;-11.50;96869.00;;;;4929224;28;86285;-62
2021/12/26 01:05:27;;;;;;;6.85;4.07;;;-10.50;83.00;-11.50;96874.00;;;;4931295;28;87745;-62
2021/12/26 01:07:59;;;;;;;7.00;4.55;;;-10.50;83.00;-11.50;96875.00;;;;4940436;28;87732;-62
2021/12/26 01:10:34;;;;;;;5.35;4.13;;;-10.50;83.10;-11.50;96865.00;;;;4927161;28;88110;-61
2021/12/26 01:13:25;;;;;;;6.70;4.45;;;-10.40;83.40;-11.40;96877.00;;;;4895339;28;87394;-61
2021/12/26 01:15:59;;;;;;;6.05;4.25;;;-10.40;83.60;-11.40;96860.00;;;;4928613;28;87681;-62
2021/12/26 01:18:30;;;;;;;5.73;3.77;;;-10.30;83.80;-11.30;96853.00;;;;4923393;28;87356;-62
2021/12/26 01:21:15;;;;;;;7.10;4.63;;;-10.30;84.00;-11.30;96853.00;;;;4935828;28;87433;-62
2021/12/26 01:23:44;;;;;;;7.20;4.22;;;-10.20;84.00;-11.30;96843.00;;;;4931894;28;87161;-61
2021/12/26 01:26:14;;;;;;;6.93;4.90;;;-10.20;84.00;-11.30;96843.00;;;;4931570;28;88806;-61
2021/12/26 01:28:41;;;;;;;6.00;4.75;;;-10.30;83.70;-11.30;96841.00;;;;4938574;28;87306;-60
2021/12/26 01:31:08;;;;;;;6.03;4.50;;;-10.30;84.10;-11.40;96841.00;;;;4937497;28;87335;-61
2021/12/26 01:33:38;;;;;;;8.77;4.68;;;-10.30;84.20;-11.40;96851.00;;;;4918874;28;87932;-61
2021/12/26 01:36:29;;;;;;;5.65;4.70;;;-10.30;84.40;-11.30;96852.00;;;;4918589;28;89154;-61
2021/12/26 01:39:15;;;;;;;5.68;4.38;;;-10.30;84.90;-11.30;96847.00;;;;4893378;28;90422;-61
2021/12/26 01:42:13;;;;;;;6.00;4.35;;;-10.20;85.00;-11.20;96845.00;;;;4921606;28;87895;-60
2021/12/26 01:44:58;;;;;;;5.20;4.30;;;-10.10;85.00;-11.10;96854.00;;;;4933505;28;87267;-61
2021/12/26 01:47:28;;;;;;;5.65;4.20;;;-10.00;85.10;-11.00;96855.00;;;;4921894;28;88652;-61
2021/12/26 01:49:54;;;;;;;5.63;4.05;;;-10.00;85.00;-10.90;96850.00;;;;4920638;28;88264;-62
2021/12/26 01:52:21;;;;;;;5.45;4.10;;;-9.90;84.70;-10.80;96859.00;;;;4922908;28;87963;-61
2021/12/26 01:54:59;;;;;;;6.43;4.03;;;-9.80;84.50;-10.80;96845.00;;;;4942184;28;87952;-62
2021/12/26 01:57:25;;;;;;;6.03;4.18;;;-9.80;84.30;-10.70;96842.00;;;;4937824;28;88773;-62
2021/12/26 01:59:52;;;;;;;5.70;4.30;;;-9.70;84.40;-10.70;96841.00;;;;4917716;28;88538;-62
2021/12/26 02:02:24;;;;;;;6.75;4.43;;;-9.70;84.40;-10.60;96832.00;;;;4936539;28;88362;-62
2021/12/26 02:04:51;;;;;;;5.50;4.35;;;-9.60;84.30;-10.60;96835.00;;;;4918951;28;87415;-62
2021/12/26 02:07:20;;;;;;;6.40;4.60;;;-9.60;84.10;-10.50;96834.00;;;;4927299;28;88095;-62
2021/12/26 02:09:49;;;;;;;6.00;4.43;;;-9.60;84.10;-10.50;96832.00;;;;4923862;28;88548;-62
2021/12/26 02:12:19;;;;;;;5.50;4.50;;;-9.50;84.20;-10.50;96830.00;;;;4926245;28;87526;-62
2021/12/26 02:14:45;;;;;;;6.25;4.60;;;-9.50;84.20;-10.40;96841.00;;;;4928655;28;87273;-62
2021/12/26 02:17:40;;;;;;;5.57;4.20;;;-9.40;84.30;-10.40;96838.00;;;;4914214;28;87523;-62
2021/12/26 02:20:37;;;;;;;5.95;4.38;;;-9.40;84.30;-10.40;96837.00;;;;4923649;28;87779;-62
2021/12/26 02:23:14;;;;;;;5.93;4.38;;;-9.40;84.30;-10.40;96832.00;;;;4933285;28;87459;-62
2021/12/26 02:28:29;;;;;;;5.60;4.22;;;-9.40;84.30;-10.40;96832.00;;;;4888687;28;90795;-62
2021/12/26 02:30:57;;;;;;;5.65;4.43;;;-9.40;84.60;-10.40;96833.00;;;;4914656;28;89828;-62
2021/12/26 02:33:23;;;;;;;6.38;4.40;;;-9.40;84.70;-10.40;96831.00;;;;4903595;28;87815;-62
2021/12/26 02:35:51;;;;;;;7.45;4.93;;;-9.40;85.00;-10.50;96829.00;;;;4904828;28;87080;-62
2021/12/26 02:38:18;;;;;;;6.57;4.80;;;-9.40;85.00;-10.50;96824.00;;;;4902687;28;87779;-62
2021/12/26 02:40:47;;;;;;;6.05;4.88;;;-9.50;85.10;-10.50;96818.00;;;;4918571;28;87525;-62
2021/12/26 02:43:18;;;;;;;6.93;5.13;;;-9.50;85.50;-10.60;96822.00;;;;4922453;28;87714;-61
2021/12/26 02:45:44;;;;;;;6.63;5.20;;;-9.50;85.70;-10.60;96819.00;;;;4932633;28;86335;-62
2021/12/26 02:48:11;;;;;;;7.13;5.20;;;-9.60;85.70;-10.70;96825.00;;;;4926766;28;88705;-62
2021/12/26 02:50:39;;;;;;;5.75;5.03;;;-9.60;86.00;-10.70;96830.00;;;;4932853;28;87471;-62
2021/12/26 02:53:09;;;;;;;7.28;5.40;;;-9.60;86.50;-10.60;96831.00;;;;4916330;28;89652;-62
2021/12/26 02:55:35;;;;;;;6.05;4.93;;;-9.60;86.60;-10.60;96821.00;;;;4928445;28;87294;-61
2021/12/26 02:58:08;;;;;;;6.45;5.25;;;-9.50;86.60;-10.50;96822.00;;;;4935517;28;87559;-61
2021/12/26 03:00:46;;;;;;;6.85;5.05;;;-9.50;86.60;-10.40;96818.00;;;;4916823;28;88271;-61
2021/12/26 03:03:13;;;;;;;5.40;4.30;;;-9.40;86.70;-10.40;96824.00;;;;4919766;28;87027;-61
2021/12/26 03:05:42;;;;;;;5.90;4.72;;;-9.40;86.50;-10.30;96810.00;;;;4929631;28;87291;-61
2021/12/26 03:08:13;;;;;;;6.78;4.60;;;-9.30;86.40;-10.30;96803.00;;;;4938977;28;88162;-60
2021/12/26 03:10:39;;;;;;;6.40;4.43;;;-9.30;86.40;-10.20;96800.00;;;;4927604;28;87382;-60
2021/12/26 03:13:09;;;;;;;5.10;4.05;;;-9.20;86.30;-10.20;96794.00;;;;4927248;28;87615;-61
2021/12/26 03:15:36;;;;;;;6.20;4.45;;;-9.20;86.10;-10.20;96804.00;;;;4915354;28;87118;-60
2021/12/26 03:18:05;;;;;;;6.00;4.55;;;-9.20;86.10;-10.10;96805.00;;;;4934969;28;90212;-61
2021/12/26 03:20:38;;;;;;;5.53;4.18;;;-9.20;86.00;-10.10;96808.00;;;;4926407;28;87203;-61
2021/12/26 03:23:07;;;;;;;6.90;4.78;;;-9.10;86.10;-10.00;96807.00;;;;4935043;28;88006;-61
2021/12/26 03:25:35;;;;;;;5.68;4.63;;;-9.10;86.10;-10.00;96806.00;;;;4932287;28;87263;-61
2021/12/26 03:28:04;;;;;;;5.80;4.22;;;-9.10;86.10;-10.00;96806.00;;;;4925753;28;87488;-60
2021/12/26 03:30:31;;;;;;;6.53;4.80;;;-9.10;85.70;-10.00;96792.00;;;;4919393;28;87237;-60
2021/12/26 03:33:01;;;;;;;5.45;4.38;;;-9.10;85.70;-10.10;96776.00;;;;4918355;28;88096;-60
2021/12/26 03:35:30;;;;;;;7.13;5.10;;;-9.10;85.90;-10.10;96791.00;;;;4931820;28;86342;-61
2021/12/26 03:37:58;;;;;;;6.40;4.13;;;-9.10;86.10;-10.10;96783.00;;;;4919416;28;88719;-60
2021/12/26 03:40:46;;;;;;;7.68;4.82;;;-9.10;86.10;-10.10;96775.00;;;;4895090;28;88546;-62
2021/12/26 03:43:12;;;;;;;6.05;4.57;;;-9.10;86.20;-10.00;96785.00;;;;4918593;28;88772;-62
2021/12/26 03:45:44;;;;;;;7.53;5.15;;;-9.10;86.30;-10.00;96791.00;;;;4922859;28;88221;-60
2021/12/26 03:48:12;;;;;;;5.65;5.03;;;-9.00;86.20;-10.00;96785.00;;;;4918978;28;87619;-61
2021/12/26 03:50:40;;;;;;;6.15;4.55;;;-9.00;86.20;-10.00;96773.00;;;;4933781;28;87637;-61
2021/12/26 03:53:08;;;;;;;5.72;4.32;;;-9.00;87.00;-9.90;96787.00;;;;4917898;28;88101;-62
2021/12/26 03:55:36;;;;;;;6.47;4.43;;;-8.90;86.30;-9.80;96777.00;;;;4926797;28;87226;-61
2021/12/26 03:58:02;;;;;;;6.10;4.32;;;-8.80;86.40;-9.70;96782.00;;;;4938600;28;88386;-61
2021/12/26 04:00:29;;;;;;;5.90;4.63;;;-8.80;86.20;-9.60;96795.00;;;;4923325;28;87303;-62
2021/12/26 04:02:56;;;;;;;6.18;4.35;;;-8.70;86.10;-9.50;96791.00;;;;4933801;28;87359;-62
2021/12/26 04:05:24;;;;;;;5.97;3.85;;;-8.60;86.00;-9.40;96782.00;;;;4921789;28;87190;-62
2021/12/26 04:07:50;;;;;;;5.28;3.78;;;-8.50;85.80;-9.30;96807.00;;;;4898040;28;88202;-62
2021/12/26 04:10:22;;;;;;;6.70;4.18;;;-8.40;85.50;-9.20;96800.00;;;;4921474;28;90913;-61
2021/12/26 04:12:51;;;;;;;4.40;3.60;;;-8.30;85.20;-9.20;96777.00;;;;4905457;28;87251;-61
2021/12/26 04:15:22;;;;;;;4.10;3.20;;;-8.30;84.80;-9.10;96789.00;;;;4918437;28;88247;-61
2021/12/26 04:17:51;;;;;;;5.60;4.10;;;-8.20;84.80;-9.10;96777.00;;;;4919991;28;87557;-62
2021/12/26 04:20:18;;;;;;;4.50;3.10;;;-8.20;84.50;-9.00;96769.00;;;;4919010;28;87276;-62
2021/12/26 04:22:45;;;;;;;4.60;3.55;;;-8.10;84.40;-9.00;96783.00;;;;4942850;28;87484;-62
2021/12/26 04:25:11;;;;;;;5.57;4.35;;;-8.10;84.20;-9.00;96769.00;;;;4922135;28;86458;-62
2021/12/26 04:27:37;;;;;;;5.95;4.18;;;-8.10;84.10;-8.90;96783.00;;;;4918951;28;88578;-61
2021/12/26 04:30:08;;;;;;;6.07;3.80;;;-8.00;84.20;-8.90;96771.00;;;;4922236;28;88799;-62
2021/12/26 04:32:35;;;;;;;5.28;3.88;;;-8.00;83.80;-8.90;96779.00;;;;4920731;28;87937;-62
2021/12/26 04:35:01;;;;;;;6.30;4.03;;;-8.00;83.80;-8.90;96777.00;;;;4918181;28;87691;-61
2021/12/26 04:37:29;;;;;;;4.75;3.78;;;-8.00;83.80;-8.90;96772.00;;;;4922846;28;87595;-61
2021/12/26 04:39:55;;;;;;;5.07;3.92;;;-8.00;83.80;-8.90;96778.00;;;;4912176;28;87384;-61
2021/12/26 04:42:23;;;;;;;5.50;3.50;;;-8.00;83.80;-8.90;96778.00;;;;4920535;28;88048;-61
2021/12/26 04:44:55;;;;;;;4.82;3.65;;;-8.00;83.70;-8.90;96771.00;;;;4930453;28;86914;-62
2021/12/26 04:47:53;;;;;;;4.60;3.30;;;-8.00;83.60;-8.90;96773.00;;;;4917687;28;89629;-61
2021/12/26 04:50:24;;;;;;;5.10;3.67;;;-8.00;83.50;-8.90;96774.00;;;;4938345;28;87361;-61
2021/12/26 04:52:57;;;;;;;5.22;3.78;;;-8.00;83.40;-8.90;96777.00;;;;4899968;28;87182;-61
2021/12/26 04:55:26;;;;;;;5.28;3.83;;;-8.00;83.40;-8.90;96773.00;;;;4926292;28;87394;-61
2021/12/26 04:57:53;;;;;;;4.53;3.38;;;-8.00;83.40;-8.90;96773.00;;;;4925715;28;88461;-61
2021/12/26 05:00:23;;;;;;;5.63;3.58;;;-8.10;83.10;-8.90;96759.00;;;;4923039;28;87378;-62
2021/12/26 05:02:50;;;;;;;6.03;4.20;;;-8.10;83.20;-8.90;96779.00;;;;4935751;28;87062;-61
2021/12/26 05:05:18;;;;;;;5.93;3.70;;;-8.00;83.30;-8.90;96765.00;;;;4930585;28;87492;-61
2021/12/26 05:07:44;;;;;;;6.18;3.53;;;-8.10;83.00;-8.90;96789.00;;;;4927938;28;88113;-61
2021/12/26 05:10:14;;;;;;;7.35;3.90;;;-8.10;83.00;-8.90;96779.00;;;;4930990;28;87745;-61
2021/12/26 05:12:42;;;;;;;5.43;3.50;;;-8.00;83.10;-8.90;96793.00;;;;4927419;28;87877;-62
2021/12/26 05:15:11;;;;;;;6.25;3.97;;;-8.00;82.90;-8.90;96796.00;;;;4925739;28;86420;-62
2021/12/26 05:17:40;;;;;;;5.63;3.55;;;-8.00;82.90;-8.90;96785.00;;;;4928433;28;89020;-62
2021/12/26 05:20:10;;;;;;;6.25;3.40;;;-8.00;82.80;-8.90;96795.00;;;;4932055;28;87303;-61
2021/12/26 05:22:36;;;;;;;7.15;3.95;;;-8.00;82.60;-8.90;96792.00;;;;4954510;28;88079;-62
2021/12/26 05:25:06;;;;;;;5.80;4.13;;;-8.00;82.30;-8.90;96786.00;;;;4915497;28;87237;-61
2021/12/26 05:27:35;;;;;;;6.07;3.78;;;-8.00;82.20;-9.00;96786.00;;;;4920022;28;89721;-63
2021/12/26 05:30:06;;;;;;;6.35;3.92;;;-8.10;83.00;-9.00;96791.00;;;;4939201;28;87639;-61
2021/12/26 05:32:33;;;;;;;5.95;3.95;;;-8.10;82.30;-9.00;96783.00;;;;4938313;28;87302;-61
2021/12/26 05:34:59;;;;;;;5.90;3.75;;;-8.10;82.30;-9.00;96782.00;;;;4895479;28;87722;-61
2021/12/26 05:37:26;;;;;;;6.63;4.07;;;-8.10;82.20;-9.00;96781.00;;;;4919905;28;88058;-61
2021/12/26 05:39:52;;;;;;;6.13;4.00;;;-8.10;82.20;-8.90;96783.00;;;;4934522;28;87358;-62
2021/12/26 05:42:18;;;;;;;5.78;4.03;;;-8.10;82.20;-8.90;96780.00;;;;4918844;28;87582;-62
2021/12/26 05:44:46;;;;;;;5.15;4.28;;;-8.10;82.20;-8.90;96783.00;;;;4919252;28;87840;-62
2021/12/26 05:47:13;;;;;;;7.53;4.10;;;-8.10;82.00;-8.90;96767.00;;;;4941237;28;88606;-62
2021/12/26 05:50:00;;;;;;;5.82;4.05;;;-8.00;82.20;-8.90;96784.00;;;;4924572;28;88268;-62
2021/12/26 05:52:29;;;;;;;13.90;4.20;;;-8.10;82.30;-8.90;96777.00;;;;4922240;28;87179;-62
2021/12/26 05:54:58;;;;;;;6.20;3.92;;;-8.00;82.40;-8.90;96780.00;;;;4923243;28;88235;-62
2021/12/26 05:57:25;;;;;;;6.45;3.75;;;-8.00;82.40;-8.90;96777.00;;;;4913400;28;88848;-62
2021/12/26 05:59:51;;;;;;;6.28;4.05;;;-8.00;82.30;-8.90;96770.00;;;;4922249;28;87433;-62
2021/12/26 06:02:18;;;;;;;5.45;4.00;;;-8.00;82.20;-8.90;96776.00;;;;4919048;28;87436;-62
2021/12/26 06:04:45;;;;;;;5.50;4.20;;;-7.90;82.30;-8.90;96767.00;;;;4925270;28;86520;-63
2021/12/26 06:07:14;;;;;;;6.10;4.38;;;-8.00;82.10;-8.90;96762.00;;;;4927650;28;87687;-62
2021/12/26 06:09:40;;;;;;;6.20;4.35;;;-8.00;82.30;-8.80;96777.00;;;;4937385;28;87651;-61
2021/12/26 06:12:08;;;;;;;6.82;4.18;;;-7.90;82.20;-8.80;96779.00;;;;4924144;28;88234;-62
2021/12/26 06:14:35;;;;;;;5.38;3.70;;;-7.90;82.40;-8.70;96772.00;;;;4926951;28;87122;-60
2021/12/26 06:17:01;;;;;;;5.88;4.07;;;-7.90;82.40;-8.70;96773.00;;;;4935415;28;87599;-60
2021/12/26 06:20:13;;;;;;;5.55;4.38;;;-7.80;82.60;-8.70;96763.00;;;;4896288;28;88522;-62
2021/12/26 06:22:45;;;;;;;6.80;4.00;;;-7.80;82.50;-8.70;96754.00;;;;4931264;28;87009;-61
2021/12/26 06:25:46;;;;;;;6.47;4.00;;;-7.80;82.20;-8.60;96756.00;;;;4929110;28;87107;-62
2021/12/26 06:28:35;;;;;;;4.60;3.42;;;-7.70;81.80;-8.60;96744.00;;;;4933654;28;87693;-62
2021/12/26 06:31:31;;;;;;;5.32;4.13;;;-7.70;81.60;-8.50;96758.00;;;;4926131;28;88815;-62
2021/12/26 06:34:16;;;;;;;4.85;3.80;;;-7.60;81.60;-8.50;96757.00;;;;4942644;28;87095;-62
2021/12/26 06:37:11;;;;;;;4.78;3.47;;;-7.70;81.40;-8.50;96742.00;;;;4892214;28;88295;-62
2021/12/26 06:39:55;;;;;;;5.30;3.80;;;-7.60;81.70;-8.50;96747.00;;;;4928542;28;90964;-62
2021/12/26 06:42:43;;;;;;;7.22;3.70;;;-7.60;81.90;-8.50;96753.00;;;;4941997;28;88023;-62
2021/12/26 06:45:28;;;;;;;5.65;3.83;;;-7.60;82.50;-8.50;96760.00;;;;4925600;28;87226;-61
2021/12/26 06:48:12;;;;;;;7.60;4.43;;;-7.60;83.00;-8.50;96744.00;;;;4939830;28;87301;-63
2021/12/26 06:50:40;;;;;;;11.45;4.43;;;-7.60;83.30;-8.40;96749.00;;;;4920761;28;88320;-63
2021/12/26 06:53:06;;;;;;;6.18;3.90;;;-7.60;83.40;-8.40;96753.00;;;;4938496;28;87402;-61
2021/12/26 06:55:32;;;;;;;7.53;4.10;;;-7.50;83.30;-8.40;96760.00;;;;4952879;28;87466;-62
2021/12/26 06:57:58;;;;;;;6.30;4.00;;;-7.50;83.20;-8.30;96752.00;;;;4948680;28;86796;-62
2021/12/26 07:00:25;;;;;;;6.82;3.97;;;-7.50;83.10;-8.30;96742.00;;;;4938732;28;88453;-61
2021/12/26 07:02:51;;;;;;;6.93;3.85;;;-7.40;83.20;-8.20;96744.00;;;;4928997;28;88284;-62
2021/12/26 07:05:18;;;;;;;5.30;3.70;;;-7.40;83.10;-8.20;96740.00;;;;4932197;28;88190;-62
2021/12/26 07:08:00;;;;;;;5.60;3.58;;;-7.40;83.20;-8.20;96750.00;;;;4930664;28;87387;-63
2021/12/26 07:10:27;;;;;;;6.68;3.50;;;-7.30;83.10;-8.10;96739.00;;;;4940910;28;89875;-62
2021/12/26 07:12:53;;;;;;;6.40;3.88;;;-7.30;83.00;-8.10;96736.00;;;;4915583;28;87654;-62
2021/12/26 07:15:28;;;;;;;6.22;3.50;;;-7.30;82.60;-8.10;96733.00;;;;4932357;28;88215;-65
2021/12/26 07:17:59;;;;;;;6.75;3.85;;;-7.30;82.10;-8.10;96741.00;;;;4929409;28;86983;-62
2021/12/26 07:20:28;;;;;;;4.82;3.38;;;-7.30;82.10;-8.10;96725.00;;;;4956242;28;87660;-62
2021/12/26 07:23:12;;;;;;;6.03;3.47;;;-7.30;82.10;-8.10;96729.00;;;;4951900;28;87342;-62
2021/12/26 07:25:42;;;;;;;5.63;3.20;;;-7.30;82.10;-8.10;96730.00;;;;4932754;28;87107;-62
2021/12/26 07:28:08;;;;;;;8.18;4.05;;;-7.30;82.20;-8.10;96734.00;;;;4930495;28;87085;-61
2021/12/26 07:30:53;;;;;;;7.13;4.38;;;-7.20;82.60;-8.10;96730.00;;;;4943132;28;88654;-62
2021/12/26 07:33:19;;;;;;;5.10;3.50;;;-7.30;82.70;-8.10;96752.00;;;;4931465;28;88358;-61
2021/12/26 07:35:48;;;;;;;6.18;4.53;;;-7.30;83.00;-8.20;96743.00;;;;4942822;28;87107;-61
2021/12/26 07:38:53;;;;;;;6.30;4.25;;;-7.40;83.30;-8.20;96740.00;;;;4860194;28;87346;-62
2021/12/26 07:41:22;;;;;;;5.85;4.00;;;-7.40;83.50;-8.30;96740.00;;;;4839782;28;87574;-61
2021/12/26 07:43:50;;;;;;;6.53;4.32;;;-7.40;83.50;-8.30;96745.00;;;;4884534;28;87533;-61
2021/12/26 07:46:35;;;;;;;6.35;4.55;;;-7.40;83.50;-8.30;96741.00;;;;4951561;28;87374;-62
2021/12/26 07:49:06;;;;;;;7.43;4.45;;;-7.40;83.60;-8.30;96728.00;;;;4910445;28;86677;-64
2021/12/26 07:52:16;;;;;;;5.97;4.35;;;-7.50;83.40;-8.30;96727.00;;;;4877330;28;88879;-65
2021/12/26 07:55:03;;;;;;;7.50;4.75;;;-7.50;83.40;-8.30;96733.00;;;;4942865;28;87936;-64
2021/12/26 07:57:48;;;;;;;6.72;4.53;;;-7.50;83.40;-8.30;96727.00;;;;4944462;28;88068;-65
2021/12/26 08:00:35;;;;;;;8.85;5.05;;;-7.50;83.40;-8.30;96719.00;;;;4950424;28;87672;-65
2021/12/26 08:03:12;;;;;;;6.65;4.03;;;-7.40;83.60;-8.20;96713.00;;;;4922942;28;89210;-63
2021/12/26 08:06:07;;;;;;;7.50;4.35;;;-7.40;83.50;-8.20;96709.00;;;;4908641;28;89559;-56
2021/12/26 08:08:50;;;;;;;8.52;4.75;;;-7.40;83.50;-8.20;96712.00;;;;4944615;28;87249;-57
2021/12/26 08:11:18;;;;;;;7.53;4.35;;;-7.40;83.50;-8.20;96712.00;;;;4898117;28;88246;-55
2021/12/26 08:13:45;;;;;;;6.38;4.47;;;-7.40;83.40;-8.20;96709.00;;;;4914630;28;89065;-59
2021/12/26 08:16:12;;;;;;;7.28;3.80;;;-7.40;83.50;-8.20;96714.00;;;;4945668;28;87446;-61
2021/12/26 08:18:39;;;;;;;7.28;4.45;;;-7.40;83.30;-8.20;96713.00;;;;4902295;28;87435;-64
2021/12/26 08:21:06;;;;;;;7.75;4.03;;;-7.30;83.30;-8.20;96713.00;;;;4906650;28;87407;-64
2021/12/26 08:23:32;;;;;;;8.93;4.35;;;-7.30;83.80;-8.10;96701.00;;;;4947787;28;89212;-57
2021/12/26 08:26:00;;;;;;;5.97;4.25;;;-7.30;82.60;-8.10;96694.00;;;;4940202;28;90223;-56
2021/12/26 08:28:28;;;;;;;5.20;3.83;;;-7.20;82.30;-8.00;96696.00;;;;4946802;28;87388;-57
2021/12/26 08:30:55;;;;;;;7.25;4.15;;;-7.20;81.90;-7.90;96699.00;;;;4916552;28;87101;-61
2021/12/26 08:33:21;;;;;;;5.70;3.58;;;-7.10;81.20;-7.90;96685.00;;;;4947376;28;87711;-55
2021/12/26 08:35:49;;;;;;;8.05;4.25;;;-7.10;81.20;-7.80;96689.00;;;;4931240;28;87897;-55
2021/12/26 08:38:20;;;;;;;5.47;3.30;;;-7.00;81.00;-7.80;96692.00;;;;4923958;28;87081;-54
2021/12/26 08:40:52;;;;;;;5.47;3.42;;;-7.00;80.40;-7.80;96678.00;;;;4950151;28;88360;-55
2021/12/26 08:43:19;;;;;;;6.38;3.65;;;-7.00;80.10;-7.80;96690.00;;;;4941478;28;88028;-56
2021/12/26 08:45:47;;;;;;;6.13;3.75;;;-6.90;80.10;-7.70;96663.00;;;;4948525;28;87155;-55
2021/12/26 08:48:13;;;;;;;6.18;3.38;;;-6.90;80.20;-7.70;96682.00;;;;4923325;28;87895;-56
2021/12/26 08:50:40;;;;;;;4.82;3.10;;;-6.90;79.60;-7.60;96663.00;;;;4942623;28;87720;-55
2021/12/26 08:53:08;;;;;;;6.68;4.50;;;-6.80;79.50;-7.60;96671.00;;;;4939329;28;87659;-57
2021/12/26 08:55:34;;;;;;;8.57;4.90;;;-6.70;79.80;-7.50;96669.00;;;;4948749;28;88961;-55
2021/12/26 08:58:00;;;;;;;15.90;4.45;;;-6.70;80.10;-7.50;96665.00;;;;4952322;28;87631;-56
2021/12/26 09:00:27;;;;;;;9.50;4.40;;;-6.70;80.50;-7.50;96653.00;;;;4945962;28;87518;-54
2021/12/26 09:02:53;;;;;;;6.07;3.50;;;-6.70;80.50;-7.50;96663.00;;;;4940581;28;88701;-56
2021/12/26 09:05:20;;;;;;;6.63;4.03;;;-6.70;80.30;-7.50;96648.00;;;;4948185;28;88077;-55
2021/12/26 09:07:46;;;;;;;6.55;4.22;;;-6.70;80.30;-7.50;96666.00;;;;4933119;28;87348;-55
2021/12/26 09:10:13;;;;;;;8.15;4.03;;;-6.70;80.50;-7.50;96661.00;;;;4942775;28;87408;-55
2021/12/26 09:12:41;;;;;;;7.15;4.15;;;-6.70;80.60;-7.40;96664.00;;;;4947001;28;89940;-53
2021/12/26 09:15:10;;;;;;;17.08;4.57;;;-6.60;80.70;-7.50;96661.00;;;;4952574;28;89542;-56
2021/12/26 09:17:36;;;;;;;8.48;4.30;;;-6.70;80.30;-7.50;96648.00;;;;4951106;28;87531;-53
2021/12/26 09:20:05;;;;;;;6.50;4.22;;;-6.70;80.60;-7.50;96647.00;;;;4950075;28;88058;-56
2021/12/26 09:22:32;;;;;;;6.90;4.00;;;-6.70;80.70;-7.50;96651.00;;;;4949585;28;87422;-55
2021/12/26 09:24:59;;;;;;;5.60;3.80;;;-6.70;80.60;-7.60;96647.00;;;;4947430;28;87717;-55
2021/12/26 09:27:25;;;;;;;5.97;4.07;;;-6.80;80.50;-7.50;96623.00;;;;4942846;28;89035;-54
2021/12/26 09:29:51;;;;;;;6.40;4.13;;;-6.70;81.10;-7.50;96634.00;;;;4946955;28;86643;-55
2021/12/26 09:32:17;;;;;;;6.35;4.20;;;-6.70;81.10;-7.50;96633.00;;;;4944175;28;87737;-55
2021/12/26 09:34:43;;;;;;;7.63;4.40;;;-6.70;80.90;-7.40;96631.00;;;;4949834;28;87367;-54
2021/12/26 09:37:10;;;;;;;10.82;4.28;;;-6.70;80.70;-7.40;96625.00;;;;4939466;28;88470;-56
2021/12/26 09:39:38;;;;;;;7.57;4.05;;;-6.60;80.70;-7.40;96628.00;;;;4927348;28;87308;-56
2021/12/26 09:42:05;;;;;;;5.63;3.72;;;-6.60;80.30;-7.30;96623.00;;;;4944616;28;87496;-53
2021/12/26 09:44:31;;;;;;;5.93;4.28;;;-6.50;80.20;-7.20;96630.00;;;;4945910;28;87463;-54
2021/12/26 09:46:58;;;;;;;5.05;3.55;;;-6.40;80.50;-7.20;96626.00;;;;4928449;28;87305;-53
2021/12/26 09:49:24;;;;;;;9.32;3.70;;;-6.40;79.80;-7.20;96614.00;;;;4947103;28;87081;-53
2021/12/26 09:51:52;;;;;;;6.07;3.72;;;-6.40;79.60;-7.20;96622.00;;;;4928678;28;88690;-57
2021/12/26 09:54:20;;;;;;;7.65;4.25;;;-6.40;79.50;-7.30;96621.00;;;;4940486;28;87525;-54
2021/12/26 09:56:46;;;;;;;6.65;4.07;;;-6.50;79.70;-7.20;96619.00;;;;4948058;28;87035;-49
2021/12/26 09:59:22;;;;;;;7.47;4.25;;;-6.50;79.70;-7.30;96622.00;;;;4946842;28;87011;-55
2021/12/26 10:01:52;;;;;;;5.07;3.60;;;-6.40;79.90;-7.20;96606.00;;;;4939831;28;89019;-52
2021/12/26 10:04:26;;;;;;;7.00;4.05;;;-6.40;80.00;-7.20;96613.00;;;;4941118;28;87255;-54
2021/12/26 10:07:13;;;;;;;13.98;4.20;;;-6.40;80.30;-7.10;96610.00;;;;4950144;28;87034;-54
2021/12/26 10:09:43;;;;;;;6.63;3.90;;;-6.30;80.20;-7.10;96608.00;;;;4943381;28;87556;-54
2021/12/26 10:12:14;;;;;;;7.45;4.32;;;-6.30;80.00;-7.10;96603.00;;;;4942262;28;87582;-54
2021/12/26 10:14:45;;;;;;;5.85;4.05;;;-6.30;79.60;-7.10;96609.00;;;;4944712;28;88342;-57
2021/12/26 10:17:23;;;;;;;15.77;4.40;;;-6.30;79.70;-7.20;96604.00;;;;4941820;28;87104;-58
2021/12/26 10:19:51;;;;;;;6.68;4.30;;;-6.30;80.00;-7.20;96606.00;;;;4938438;28;87192;-54
2021/12/26 10:22:26;;;;;;;6.90;4.20;;;-6.30;80.00;-7.20;96595.00;;;;4955066;28;87898;-55
2021/12/26 10:24:55;;;;;;;8.07;4.25;;;-6.40;80.10;-7.20;96595.00;;;;4947844;28;87890;-52
2021/12/26 10:27:30;;;;;;;7.10;3.95;;;-6.40;79.70;-7.20;96595.00;;;;4943480;28;88344;-56
2021/12/26 10:30:00;;;;;;;6.95;4.10;;;-6.40;80.00;-7.10;96580.00;;;;4922493;28;87191;-54
2021/12/26 10:32:34;;;;;;;5.63;3.60;;;-6.40;79.90;-7.10;96592.00;;;;4943278;28;87610;-57
2021/12/26 10:35:20;;;;;;;6.20;3.72;;;-6.30;79.90;-7.10;96589.00;;;;4943479;28;88519;-58
2021/12/26 10:37:50;;;;;;;8.25;4.20;;;-6.40;79.90;-7.00;96581.00;;;;4919895;28;87125;-57
2021/12/26 10:40:18;;;;;;;8.48;4.07;;;-6.30;79.80;-7.00;96589.00;;;;4949887;28;88060;-56
2021/12/26 10:42:50;;;;;;;6.65;4.05;;;-6.20;79.70;-7.00;96574.00;;;;4947342;28;87814;-55
2021/12/26 10:45:20;;;;;;;6.28;4.28;;;-6.20;80.00;-7.00;96576.00;;;;4947460;28;88223;-61
2021/12/26 10:47:59;;;;;;;6.32;4.00;;;-6.30;79.80;-7.00;96571.00;;;;4946806;28;88782;-54
2021/12/26 10:50:29;;;;;;;6.03;3.90;;;-6.30;80.20;-7.10;96572.00;;;;4940893;28;88101;-53
2021/12/26 10:53:02;;;;;;;7.32;4.28;;;-6.30;80.40;-7.10;96563.00;;;;4935966;28;89444;-51
2021/12/26 10:55:34;;;;;;;5.97;3.63;;;-6.40;80.40;-7.20;96567.00;;;;4929542;28;87132;-57
2021/12/26 10:58:06;;;;;;;;;;;-6.40;80.80;-7.20;96559.00;;;;4944757;28;88296;-56
2021/12/26 11:00:41;;;;;;;8.02;3.85;;;-6.40;81.10;-7.20;96559.00;;;;4944281;28;86956;-56
2021/12/26 11:03:12;;;;;;;6.82;4.53;;;-6.40;81.30;-7.20;96544.00;;;;4937240;28;87934;-57
2021/12/26 11:05:47;;;;;;;6.95;3.45;;;-6.50;81.80;-7.20;96542.00;;;;4947079;28;89195;-55
2021/12/26 11:08:26;;;;;;;7.32;3.92;;;-6.40;81.90;-7.20;96553.00;;;;4947218;28;87149;-59
2021/12/26 11:10:55;;;;;;;6.28;3.95;;;-6.40;81.90;-7.10;96551.00;;;;4944522;28;86643;-56